Time;durP1;ratioP1;P1;durP2;ratioP2;P2;SDS_P1;SDS_P2;PMS_P1;PMS_P2;Temp;Humidity;BMP_temperature;BMP_pressure;BME280_temperature;BME280_humidity;BME280_pressure;Samples;Min_cycle;Max_cycle;Signal;HPM_P1;HPM_P2
2023/01/21 00:01:53;;;;;;;1.00;1.00;;;;;;;1.24;87.89;99053.28;5095575;28;20044;-71
2023/01/21 00:04:22;;;;;;;0.75;0.75;;;;;;;1.24;87.93;99054.13;5096106;28;20059;-71
2023/01/21 00:06:50;;;;;;;1.43;1.33;;;;;;;1.25;87.83;99060.84;5094721;28;20040;-72
2023/01/21 00:09:19;;;;;;;0.73;0.73;;;;;;;1.27;87.31;99059.22;5095530;28;20119;-72
2023/01/21 00:11:48;;;;;;;1.57;1.47;;;;;;;1.27;87.47;99056.72;5095093;28;20393;-71
2023/01/21 00:14:17;;;;;;;2.10;2.00;;;;;;;1.24;87.60;99061.69;5095563;28;20068;-71
2023/01/21 00:16:47;;;;;;;0.77;0.75;;;;;;;1.26;87.82;99062.56;5095563;28;20308;-71
2023/01/21 00:19:16;;;;;;;1.10;1.00;;;;;;;1.27;87.36;99069.28;5095894;28;20051;-71
2023/01/21 00:21:45;;;;;;;1.85;1.52;;;;;;;1.27;87.93;99069.28;5094232;28;20139;-71
2023/01/21 00:24:14;;;;;;;1.83;1.65;;;;;;;1.26;87.30;99072.63;5095328;28;20044;-72
2023/01/21 00:26:43;;;;;;;1.17;1.08;;;;;;;1.26;87.89;99072.63;5094989;28;20040;-71
2023/01/21 00:29:12;;;;;;;0.50;0.50;;;;;;;1.26;87.31;99066.75;5095337;28;20549;-72
2023/01/21 00:31:41;;;;;;;1.30;1.23;;;;;;;1.23;87.39;99072.53;5095000;28;20040;-71
2023/01/21 00:34:12;;;;;;;0.82;0.82;;;;;;;1.23;88.05;99071.69;5093773;28;20047;-71
2023/01/21 00:36:41;;;;;;;0.90;0.90;;;;;;;1.23;87.94;99067.50;5095173;28;20439;-71
2023/01/21 00:39:09;;;;;;;0.55;0.55;;;;;;;1.25;87.92;99060.84;5095167;28;20143;-71
2023/01/21 00:41:38;;;;;;;2.13;1.93;;;;;;;1.03;87.99;99041.00;5095343;28;20158;-71
2023/01/21 00:44:07;;;;;;;1.47;1.40;;;;;;;1.25;87.39;99075.94;5095042;28;20311;-71
2023/01/21 00:46:36;;;;;;;8.73;1.90;;;;;;;1.24;87.65;99069.22;5094887;28;20059;-70
2023/01/21 00:49:05;;;;;;;1.07;1.03;;;;;;;1.26;87.60;99080.16;5094646;28;20123;-70
2023/01/21 00:51:35;;;;;;;1.27;1.23;;;;;;;1.28;87.91;99081.03;5094620;28;20299;-71
2023/01/21 00:54:04;;;;;;;0.60;0.60;;;;;;;1.28;88.07;99081.03;5094584;28;20761;-71
2023/01/21 00:56:33;;;;;;;0.98;0.98;;;;;;;1.30;87.20;99074.38;5094743;28;20093;-70
2023/01/21 00:59:02;;;;;;;0.68;0.68;;;;;;;1.27;87.41;99074.31;5094443;28;20059;-71
2023/01/21 01:01:37;;;;;;;0.50;0.50;;;;;;;1.29;86.97;99076.88;5094826;28;20040;-71
2023/01/21 01:04:06;;;;;;;2.00;1.75;;;;;;;1.27;88.08;99079.31;5094417;28;20051;-72
2023/01/21 01:06:36;;;;;;;1.65;1.55;;;;;;;1.30;87.76;99088.63;5094265;28;20490;-71
2023/01/21 01:09:05;;;;;;;0.90;0.90;;;;;;;1.30;87.86;99086.94;5094272;28;20052;-71
2023/01/21 01:11:34;;;;;;;0.90;0.90;;;;;;;1.32;87.05;99082.81;5094082;28;20075;-71
2023/01/21 01:14:03;;;;;;;0.67;0.67;;;;;;;1.31;87.62;99076.09;5094184;28;20040;-71
2023/01/21 01:16:32;;;;;;;1.35;1.20;;;;;;;1.31;87.05;99086.16;5093972;28;20291;-71
2023/01/21 01:19:01;;;;;;;;;;;;;;;1.28;87.63;99083.56;5094463;28;20068;-71
2023/01/21 01:21:29;;;;;;;0.47;0.47;;;;;;;1.29;86.94;99085.28;5094075;28;19920;-72
2023/01/21 01:24:02;;;;;;;0.65;0.65;;;;;;;1.31;87.66;99086.16;5094056;28;20044;-71
2023/01/21 01:26:30;;;;;;;0.45;0.45;;;;;;;1.31;87.59;99088.66;5094007;28;20051;-71
2023/01/21 01:28:59;;;;;;;0.57;0.57;;;;;;;1.34;86.99;99090.41;5093927;28;20044;-71
2023/01/21 01:31:28;;;;;;;0.90;0.90;;;;;;;1.34;87.41;99090.41;5093918;28;20363;-72
2023/01/21 01:33:58;;;;;;;1.20;0.80;;;;;;;1.30;86.46;99084.44;5094233;28;20093;-71
2023/01/21 01:36:26;;;;;;;;;;;;;;;1.30;86.69;99088.63;5093359;28;20138;-71
2023/01/21 01:38:55;;;;;;;1.00;1.00;;;;;;;1.26;86.42;99082.66;5094444;28;19920;-71
2023/01/21 01:41:28;;;;;;;0.47;0.47;;;;;;;1.28;86.69;99090.25;5094141;28;20044;-72
2023/01/21 01:44:01;;;;;;;0.73;0.73;;;;;;;1.29;86.51;99087.78;5094387;28;20079;-71
2023/01/21 01:46:32;;;;;;;0.88;0.88;;;;;;;1.31;86.52;99086.16;5094044;28;20115;-71
2023/01/21 01:49:07;;;;;;;1.05;1.00;;;;;;;1.29;86.42;99087.78;5093821;28;20048;-71
2023/01/21 01:51:46;;;;;;;1.00;0.90;;;;;;;1.28;86.87;99083.56;5093749;28;20059;-70
2023/01/21 01:54:20;;;;;;;1.50;1.40;;;;;;;1.31;86.80;99080.28;5094331;28;20052;-72
2023/01/21 01:56:53;;;;;;;2.33;1.73;;;;;;;1.32;85.88;99080.31;5093682;28;20040;-73
2023/01/21 01:59:23;;;;;;;7.72;1.98;;;;;;;1.34;86.66;99077.84;5094234;28;20205;-72
2023/01/21 02:01:52;;;;;;;0.88;0.88;;;;;;;1.33;86.55;99074.47;5093797;28;20039;-71
2023/01/21 02:04:29;;;;;;;0.75;0.75;;;;;;;1.16;86.41;99044.69;5092413;28;20044;-71
2023/01/21 02:07:00;;;;;;;3.92;2.25;;;;;;;1.38;86.38;99071.22;5093545;28;20055;-72
2023/01/21 02:09:29;;;;;;;0.70;0.70;;;;;;;1.39;86.34;99067.91;5093545;28;20048;-71
2023/01/21 02:12:01;;;;;;;2.23;2.13;;;;;;;1.37;85.90;99069.53;5093196;28;20071;-71
2023/01/21 02:14:33;;;;;;;2.10;2.00;;;;;;;1.38;85.89;99069.56;5093517;28;20074;-72
2023/01/21 02:17:20;;;;;;;0.95;0.95;;;;;;;1.41;85.65;99062.09;5093786;28;20044;-72
2023/01/21 02:20:22;;;;;;;1.50;1.40;;;;;;;1.41;85.83;99061.25;5093473;28;20135;-71
2023/01/21 02:23:02;;;;;;;4.75;2.33;;;;;;;1.37;85.44;99059.47;5093661;28;20062;-71
2023/01/21 02:25:52;;;;;;;0.82;0.82;;;;;;;1.42;85.13;99060.47;5093513;28;20093;-71
2023/01/21 02:28:55;;;;;;;0.90;0.90;;;;;;;1.41;85.75;99058.75;5093648;28;20048;-71
2023/01/21 02:31:53;;;;;;;4.88;2.65;;;;;;;1.42;85.69;99052.91;5077738;28;20040;-71
2023/01/21 02:34:32;;;;;;;1.98;1.77;;;;;;;1.43;84.56;99057.09;5094083;28;20567;-72
2023/01/21 02:37:09;;;;;;;1.40;1.30;;;;;;;1.43;84.60;99057.09;5097543;28;20044;-73
2023/01/21 02:40:03;;;;;;;0.77;0.77;;;;;;;1.40;85.31;99054.50;5096290;28;20044;-71
2023/01/21 02:42:42;;;;;;;0.95;0.95;;;;;;;1.42;85.21;99057.94;5097041;28;20040;-73
2023/01/21 02:45:22;;;;;;;2.58;2.10;;;;;;;1.37;84.86;99049.44;5097115;28;20158;-73
2023/01/21 02:48:05;;;;;;;0.95;0.95;;;;;;;1.41;84.41;99051.19;5097552;28;20044;-72
2023/01/21 02:50:38;;;;;;;0.70;0.70;;;;;;;1.11;84.36;99006.88;5097631;28;20440;-73
2023/01/21 02:53:07;;;;;;;1.42;1.33;;;;;;;1.42;84.08;99047.88;5097107;28;20072;-71
2023/01/21 02:55:38;;;;;;;1.30;1.20;;;;;;;1.41;84.14;99048.69;5096858;28;20093;-72
2023/01/21 02:58:15;;;;;;;0.93;0.93;;;;;;;1.40;84.54;99039.44;5096914;28;20486;-72
2023/01/21 03:01:08;;;;;;;0.93;0.93;;;;;;;1.21;83.86;99018.03;5096936;28;20067;-72
2023/01/21 03:03:54;;;;;;;1.20;1.20;;;;;;;1.41;84.16;99046.16;5096684;28;20076;-73
2023/01/21 03:06:47;;;;;;;2.17;1.98;;;;;;;1.43;83.86;99045.41;5096990;28;20048;-73
2023/01/21 03:09:23;;;;;;;1.25;1.20;;;;;;;1.44;83.92;99041.22;5096719;28;20055;-71
2023/01/21 03:12:17;;;;;;;1.95;1.75;;;;;;;1.42;84.14;99047.88;5096376;28;20078;-71
2023/01/21 03:17:40;;;;;;;1.02;1.02;;;;;;;1.41;83.66;99047.03;5097351;28;20083;-71
2023/01/21 03:20:13;;;;;;;1.00;1.00;;;;;;;1.41;83.69;99042.00;5096753;28;20105;-71
2023/01/21 03:22:45;;;;;;;1.00;1.00;;;;;;;1.34;83.91;99020.03;5095162;28;20044;-71
2023/01/21 03:25:17;;;;;;;0.50;0.50;;;;;;;1.44;83.83;99038.72;5096309;28;20056;-74
2023/01/21 03:27:50;;;;;;;1.25;1.17;;;;;;;1.45;83.75;99032.84;5095525;28;20135;-72
2023/01/21 03:30:22;;;;;;;0.57;0.57;;;;;;;1.42;83.34;99043.69;5096530;28;20501;-71
2023/01/21 03:32:54;;;;;;;0.70;0.70;;;;;;;1.41;83.48;99038.63;5096253;28;20043;-74
2023/01/21 03:35:29;;;;;;;0.80;0.80;;;;;;;1.41;83.43;99036.13;5096154;28;20048;-72
2023/01/21 03:38:05;;;;;;;1.15;1.05;;;;;;;1.41;83.01;99046.16;5096412;28;20040;-72
2023/01/21 03:40:40;;;;;;;3.20;1.85;;;;;;;1.41;83.28;99041.16;5096006;28;20079;-73
2023/01/21 03:43:09;;;;;;;0.60;0.60;;;;;;;1.42;83.05;99037.84;5096002;28;20048;-72
2023/01/21 03:45:45;;;;;;;2.38;1.13;;;;;;;1.41;82.90;99034.47;5096115;28;20043;-72
2023/01/21 03:48:22;;;;;;;0.63;0.63;;;;;;;1.43;82.37;99044.53;5095827;28;20048;-73
2023/01/21 03:50:56;;;;;;;1.40;1.30;;;;;;;1.34;82.80;99023.38;5095863;28;20040;-72
2023/01/21 03:53:27;;;;;;;1.63;1.52;;;;;;;1.41;82.43;99036.97;5096064;28;20044;-73
2023/01/21 03:55:58;;;;;;;1.67;1.58;;;;;;;1.41;82.49;99038.63;5095812;28;20048;-72
2023/01/21 03:58:27;;;;;;;1.90;1.80;;;;;;;1.41;82.72;99038.63;5095990;28;20044;-72
2023/01/21 04:00:56;;;;;;;1.13;1.10;;;;;;;1.40;82.52;99041.94;5095580;28;20070;-72
2023/01/21 04:03:25;;;;;;;0.90;0.90;;;;;;;1.39;82.47;99037.75;5096086;28;20052;-71
2023/01/21 04:05:54;;;;;;;0.93;0.93;;;;;;;1.42;81.78;99037.84;5095458;28;20078;-72
2023/01/21 04:08:22;;;;;;;2.50;2.30;;;;;;;1.42;81.70;99041.16;5095661;28;20516;-72
2023/01/21 04:10:53;;;;;;;1.30;1.20;;;;;;;1.41;81.56;99038.63;5095219;28;20333;-71
2023/01/21 04:13:21;;;;;;;0.50;0.50;;;;;;;1.39;81.65;99032.72;5095711;28;20508;-71
2023/01/21 04:15:50;;;;;;;0.60;0.60;;;;;;;1.37;81.39;99034.34;5095615;28;20044;-71
2023/01/21 04:18:19;;;;;;;0.75;0.75;;;;;;;1.38;82.05;99038.53;5095598;28;20115;-71
2023/01/21 04:20:48;;;;;;;0.67;0.67;;;;;;;1.38;82.11;99033.50;5095315;28;20127;-71
2023/01/21 04:23:16;;;;;;;0.63;0.63;;;;;;;1.39;82.08;99042.78;5095507;28;20036;-71
2023/01/21 04:25:47;;;;;;;1.37;1.27;;;;;;;1.37;81.91;99040.19;5095105;28;20072;-71
2023/01/21 04:28:18;;;;;;;0.60;0.60;;;;;;;1.35;81.73;99044.34;5095526;28;20036;-71
2023/01/21 04:30:48;;;;;;;0.50;0.50;;;;;;;1.33;81.77;99049.34;5095073;28;20126;-72
2023/01/21 04:33:17;;;;;;;0.80;0.80;;;;;;;1.32;80.97;99040.09;5095014;28;20048;-76
2023/01/21 04:35:46;;;;;;;0.65;0.65;;;;;;;1.31;81.33;99045.94;5094933;28;20132;-71
2023/01/21 04:38:15;;;;;;;0.50;0.50;;;;;;;1.32;81.40;99051.81;5095463;28;20446;-71
2023/01/21 04:40:44;;;;;;;0.50;0.50;;;;;;;1.29;81.54;99057.63;5094976;28;20093;-72
2023/01/21 04:43:12;;;;;;;0.65;0.65;;;;;;;1.28;81.19;99055.91;5094788;28;20277;-71
2023/01/21 04:45:42;;;;;;;1.17;1.07;;;;;;;1.29;80.97;99055.13;5095005;28;20470;-71
2023/01/21 04:48:11;;;;;;;0.50;0.50;;;;;;;1.28;80.79;99060.94;5094936;28;20040;-71
2023/01/21 04:50:40;;;;;;;0.50;0.50;;;;;;;1.30;80.43;99059.31;5095328;28;20051;-73
2023/01/21 04:53:09;;;;;;;0.50;0.50;;;;;;;1.31;80.61;99071.06;5094478;28;20063;-71
2023/01/21 04:55:38;;;;;;;0.60;0.60;;;;;;;1.31;81.06;99076.09;5094557;28;20040;-71
2023/01/21 04:58:07;;;;;;;0.40;0.40;;;;;;;1.31;81.07;99081.13;5094664;28;20050;-71
2023/01/21 05:00:35;;;;;;;0.50;0.50;;;;;;;1.33;81.05;99083.66;5094536;28;20047;-70
2023/01/21 05:03:06;;;;;;;4.88;2.85;;;;;;;1.32;80.91;99092.88;5094427;28;20064;-71
2023/01/21 05:05:35;;;;;;;0.95;0.85;;;;;;;1.29;80.61;99082.75;5094408;28;20047;-71
2023/01/21 05:08:04;;;;;;;0.50;0.50;;;;;;;1.34;80.50;99096.25;5094211;28;20040;-71
2023/01/21 05:10:32;;;;;;;0.40;0.40;;;;;;;1.37;80.89;99104.72;5094125;28;20044;-72
2023/01/21 05:13:01;;;;;;;0.50;0.50;;;;;;;1.38;80.40;99106.41;5094287;28;20036;-72
2023/01/21 05:15:32;;;;;;;0.90;0.90;;;;;;;1.37;80.76;99108.06;5094522;28;20135;-71
2023/01/21 05:18:00;;;;;;;0.50;0.50;;;;;;;1.31;80.68;99096.22;5094200;28;20072;-70
2023/01/21 05:20:31;;;;;;;1.25;1.20;;;;;;;1.38;79.90;99121.50;5094445;28;20040;-71
2023/01/21 05:22:59;;;;;;;0.65;0.65;;;;;;;1.37;80.07;99117.28;5094115;28;20048;-71
2023/01/21 05:25:28;;;;;;;0.60;0.60;;;;;;;1.42;79.69;99120.78;5094071;28;20090;-71
2023/01/21 05:27:57;;;;;;;0.60;0.60;;;;;;;1.43;80.05;99122.47;5094208;28;20075;-71
2023/01/21 05:30:26;;;;;;;0.40;0.40;;;;;;;1.41;79.58;99124.09;5094015;28;20070;-71
2023/01/21 05:32:56;;;;;;;0.50;0.50;;;;;;;1.30;79.53;99107.06;5094293;28;20281;-70
2023/01/21 05:35:25;;;;;;;1.60;1.50;;;;;;;1.41;80.10;99131.63;5094253;28;20526;-71
2023/01/21 05:37:55;;;;;;;0.60;0.60;;;;;;;1.42;79.36;99135.88;5093893;28;20101;-71
2023/01/21 05:40:27;;;;;;;0.60;0.60;;;;;;;1.42;79.18;99148.44;5094124;28;20044;-70
2023/01/21 05:42:56;;;;;;;0.75;0.75;;;;;;;1.41;79.78;99141.69;5094146;28;20048;-71
2023/01/21 05:45:25;;;;;;;1.30;1.20;;;;;;;1.41;80.00;99146.72;5093785;28;20075;-72
2023/01/21 05:47:53;;;;;;;1.20;1.15;;;;;;;1.34;79.72;99130.63;5092434;28;20273;-70
2023/01/21 05:50:22;;;;;;;0.60;0.60;;;;;;;1.43;79.07;99155.16;5094064;28;20048;-70
2023/01/21 05:52:51;;;;;;;0.80;0.80;;;;;;;1.44;79.06;99159.38;5093695;28;20044;-71
2023/01/21 05:55:22;;;;;;;0.60;0.60;;;;;;;1.42;79.48;99158.50;5093983;28;20393;-70
2023/01/21 05:57:51;;;;;;;0.50;0.50;;;;;;;1.45;79.51;99166.09;5093687;28;20097;-71
2023/01/21 06:00:20;;;;;;;0.63;0.63;;;;;;;1.43;79.36;99162.69;5093554;28;20060;-70
2023/01/21 06:02:49;;;;;;;;;;;;;;;1.41;79.68;99156.78;5094292;28;20378;-71
2023/01/21 06:05:17;;;;;;;0.40;0.40;;;;;;;1.39;79.22;99173.47;5097535;28;20349;-70
2023/01/21 06:07:46;;;;;;;0.40;0.40;;;;;;;1.40;79.70;99165.09;5098100;28;20042;-71
2023/01/21 06:10:16;;;;;;;0.60;0.60;;;;;;;1.40;79.09;99170.13;5097911;28;20712;-70
2023/01/21 06:12:49;;;;;;;0.50;0.50;;;;;;;1.41;78.89;99176.88;5097962;28;20052;-70
2023/01/21 06:15:18;;;;;;;0.73;0.63;;;;;;;1.42;79.53;99176.09;5097905;28;20489;-71
2023/01/21 06:17:47;;;;;;;0.65;0.65;;;;;;;1.39;79.49;99179.38;5097824;28;20041;-70
2023/01/21 06:20:16;;;;;;;0.30;0.30;;;;;;;1.43;79.49;99195.38;5097577;28;20131;-70
2023/01/21 06:22:46;;;;;;;0.95;0.95;;;;;;;1.43;78.67;99187.81;5097467;28;20050;-70
2023/01/21 06:25:14;;;;;;;1.17;1.13;;;;;;;1.44;79.17;99197.09;5097504;28;20134;-70
2023/01/21 06:27:43;;;;;;;0.50;0.50;;;;;;;1.44;78.62;99199.59;5097367;28;20044;-70
2023/01/21 06:30:14;;;;;;;1.27;1.17;;;;;;;1.46;79.20;99200.47;5097617;28;20032;-71
2023/01/21 06:32:43;;;;;;;0.40;0.40;;;;;;;1.45;78.46;99213.84;5097411;28;20288;-70
2023/01/21 06:35:12;;;;;;;0.60;0.60;;;;;;;1.46;79.06;99215.56;5097211;28;20127;-70
2023/01/21 06:37:41;;;;;;;0.55;0.55;;;;;;;1.46;78.35;99226.47;5097546;28;20044;-70
2023/01/21 06:40:11;;;;;;;0.50;0.50;;;;;;;1.40;79.00;99205.31;5097460;28;20056;-70
2023/01/21 06:42:40;;;;;;;0.80;0.80;;;;;;;1.51;78.21;99229.97;5097487;28;20401;-70
2023/01/21 06:45:09;;;;;;;0.50;0.50;;;;;;;1.53;77.97;99222.47;5097426;28;20485;-70
2023/01/21 06:47:41;;;;;;;;;;;;;;;1.54;78.90;99244.25;5097696;28;20040;-70
2023/01/21 06:50:12;;;;;;;0.50;0.50;;;;;;;1.54;78.83;99254.31;5097415;28;20007;-70
2023/01/21 06:52:43;;;;;;;0.50;0.50;;;;;;;1.54;78.64;99246.78;5096928;28;20079;-70
2023/01/21 06:55:12;;;;;;;1.60;1.50;;;;;;;1.57;78.29;99256.94;5096926;28;20157;-71
2023/01/21 06:57:43;;;;;;;0.30;0.30;;;;;;;1.57;78.52;99260.31;5096799;28;20048;-70
2023/01/21 07:00:14;;;;;;;0.55;0.55;;;;;;;1.57;78.13;99269.50;5096807;28;20051;-70
2023/01/21 07:02:45;;;;;;;1.08;1.08;;;;;;;1.60;78.58;99264.56;5097059;28;20048;-70
2023/01/21 07:05:14;;;;;;;0.60;0.60;;;;;;;1.60;77.77;99259.53;5096731;28;20040;-70
2023/01/21 07:07:44;;;;;;;2.85;2.05;;;;;;;1.64;77.74;99266.34;5096787;28;20044;-71
2023/01/21 07:10:13;;;;;;;0.70;0.70;;;;;;;1.63;78.01;99254.59;5096660;28;20037;-70
2023/01/21 07:12:42;;;;;;;0.30;0.30;;;;;;;1.65;77.62;99252.97;5096436;28;20151;-70
2023/01/21 07:16:28;;;;;;;0.50;0.50;;;;;;;1.68;78.04;99256.41;5132929;27;20853;-69
2023/01/21 10:24:20;;;;;;;0.70;0.70;;;;;;;2.86;72.77;99372.78;5132935;27;20371;-70
2023/01/21 10:26:53;;;;;;;0.50;0.50;;;;;;;2.94;73.11;99370.47;5131517;27;20122;-71
2023/01/21 10:29:26;;;;;;;1.42;1.35;;;;;;;3.03;72.98;99381.63;5131918;27;20044;-70
2023/01/21 10:32:01;;;;;;;0.68;0.68;;;;;;;3.12;71.91;99379.31;5132112;27;20043;-70
2023/01/21 10:34:32;;;;;;;1.40;1.23;;;;;;;3.18;72.56;99374.44;5131780;27;20058;-70
2023/01/21 10:37:12;;;;;;;1.13;1.10;;;;;;;3.26;72.43;99364.53;5132365;27;20481;-70
2023/01/21 10:39:54;;;;;;;0.50;0.50;;;;;;;3.26;71.80;99364.53;5132018;27;20043;-70
2023/01/21 10:42:40;;;;;;;0.70;0.70;;;;;;;3.33;71.94;99363.84;5132132;27;20499;-69
2023/01/21 10:45:23;;;;;;;0.88;0.85;;;;;;;3.43;71.81;99373.34;5131916;27;20078;-69
2023/01/21 10:48:00;;;;;;;0.60;0.60;;;;;;;3.46;71.25;99370.00;5131502;27;20104;-70
2023/01/21 10:50:45;;;;;;;1.67;1.58;;;;;;;3.52;70.94;99378.56;5131845;27;20063;-69
2023/01/21 10:53:22;;;;;;;0.45;0.45;;;;;;;3.51;70.67;99379.38;5131400;27;20141;-69
2023/01/21 10:56:06;;;;;;;0.50;0.50;;;;;;;3.46;71.35;99373.38;5131656;27;20043;-69
2023/01/21 10:58:41;;;;;;;0.50;0.50;;;;;;;3.49;70.77;99382.69;5131381;27;20496;-71
2023/01/21 11:01:19;;;;;;;0.60;0.60;;;;;;;3.44;70.74;99375.03;5131177;27;20044;-69
2023/01/21 11:03:50;;;;;;;0.47;0.47;;;;;;;3.38;70.79;99378.25;5131172;27;20067;-70
2023/01/21 11:06:21;;;;;;;0.80;0.80;;;;;;;3.39;71.11;99381.63;5131510;27;20442;-69
2023/01/21 11:08:55;;;;;;;0.63;0.63;;;;;;;3.36;70.62;99391.63;5131423;27;20097;-69
2023/01/21 11:11:29;;;;;;;0.50;0.50;;;;;;;3.36;71.12;99392.50;5131200;27;20058;-69
2023/01/21 11:13:59;;;;;;;0.70;0.70;;;;;;;3.33;70.35;99386.53;5131020;27;20087;-69
2023/01/21 11:16:36;;;;;;;3.85;2.15;;;;;;;3.32;70.55;99385.69;5131005;27;20096;-69
2023/01/21 11:19:07;;;;;;;0.82;0.82;;;;;;;3.32;70.35;99389.88;5130952;27;20111;-69
2023/01/21 11:21:38;;;;;;;0.88;0.82;;;;;;;3.30;70.74;99386.47;5130926;27;20063;-69
2023/01/21 11:24:21;;;;;;;0.65;0.65;;;;;;;3.29;71.25;99384.75;5130586;27;20059;-70
2023/01/21 11:26:54;;;;;;;0.60;0.60;;;;;;;3.26;70.32;99384.69;5131080;27;20058;-69
2023/01/21 11:29:25;;;;;;;1.30;1.20;;;;;;;3.25;70.94;99385.50;5130808;27;20497;-69
2023/01/21 11:32:03;;;;;;;1.05;0.63;;;;;;;3.26;70.41;99379.66;5130676;27;20047;-69
2023/01/21 11:34:34;;;;;;;0.98;0.98;;;;;;;3.27;70.72;99386.38;5123313;27;20425;-70
2023/01/21 11:37:05;;;;;;;1.13;1.08;;;;;;;3.25;70.46;99398.13;5117220;28;20078;-69
2023/01/21 11:39:37;;;;;;;0.82;0.82;;;;;;;3.30;70.97;99396.56;5116826;28;20050;-69
2023/01/21 11:42:13;;;;;;;2.50;1.55;;;;;;;3.29;71.09;99384.75;5116852;27;20047;-70
2023/01/21 11:44:52;;;;;;;0.95;0.95;;;;;;;3.28;70.56;99388.09;5115262;28;20044;-70
2023/01/21 11:47:36;;;;;;;0.93;0.93;;;;;;;3.28;70.71;99383.06;5116782;28;20493;-69
2023/01/21 11:50:17;;;;;;;1.13;1.08;;;;;;;3.30;70.23;99381.41;5116563;28;20051;-69
2023/01/21 11:52:47;;;;;;;0.60;0.60;;;;;;;3.39;71.02;99382.47;5116912;28;20490;-69
2023/01/21 11:55:21;;;;;;;1.27;1.17;;;;;;;3.42;70.88;99381.69;5116598;28;20039;-69
2023/01/21 11:57:53;;;;;;;1.58;0.90;;;;;;;3.42;70.56;99388.41;5116529;28;20044;-69
2023/01/21 12:00:25;;;;;;;0.75;0.75;;;;;;;3.36;70.41;99376.50;5116682;28;20112;-69
2023/01/21 12:02:59;;;;;;;3.40;2.40;;;;;;;3.41;70.95;99390.06;5116664;28;20504;-70
2023/01/21 12:05:33;;;;;;;0.60;0.60;;;;;;;3.33;70.88;99384.03;5116309;28;20162;-69
2023/01/21 12:08:04;;;;;;;0.73;0.73;;;;;;;3.37;71.02;99395.88;5116360;28;20043;-69
2023/01/21 12:10:39;;;;;;;0.88;0.88;;;;;;;3.38;70.68;99395.91;5116244;28;20073;-70
2023/01/21 12:13:23;;;;;;;1.67;1.58;;;;;;;3.42;70.67;99390.94;5116211;28;20126;-70
2023/01/21 12:16:20;;;;;;;0.80;0.80;;;;;;;3.37;71.26;99394.22;5116166;28;20048;-69
2023/01/21 12:19:19;;;;;;;0.95;0.95;;;;;;;3.36;71.14;99400.06;5116028;28;20055;-69
2023/01/21 12:22:09;;;;;;;0.80;0.80;;;;;;;3.36;71.29;99395.00;5116218;28;20122;-70
2023/01/21 12:24:57;;;;;;;4.05;1.95;;;;;;;3.37;70.36;99388.31;5116104;28;20063;-69
2023/01/21 12:27:40;;;;;;;0.85;0.85;;;;;;;3.37;70.51;99385.78;5115913;28;20093;-69
2023/01/21 12:30:20;;;;;;;1.40;1.30;;;;;;;3.37;70.83;99388.31;5115865;28;20048;-69
2023/01/21 12:32:55;;;;;;;0.93;0.90;;;;;;;3.38;70.78;99393.38;5115756;28;20059;-69
2023/01/21 12:35:30;;;;;;;0.75;0.57;;;;;;;3.37;70.79;99390.84;5116146;28;20135;-69
2023/01/21 12:38:04;;;;;;;1.52;1.42;;;;;;;3.37;71.09;99385.78;5116059;28;20050;-69
2023/01/21 12:40:39;;;;;;;2.22;1.30;;;;;;;3.31;70.78;99394.06;5115915;28;20048;-69
2023/01/21 12:43:16;;;;;;;1.05;0.50;;;;;;;3.34;71.12;99388.22;5115605;28;20044;-69
2023/01/21 12:45:52;;;;;;;1.10;1.00;;;;;;;3.29;70.53;99389.78;5114830;28;20071;-69
2023/01/21 12:48:29;;;;;;;0.98;0.98;;;;;;;3.29;70.50;99384.75;5116012;28;20130;-69
2023/01/21 12:51:03;;;;;;;0.35;0.35;;;;;;;3.33;70.64;99392.44;5115470;28;20059;-69
2023/01/21 12:53:40;;;;;;;2.95;0.90;;;;;;;3.28;70.51;99393.16;5115397;28;20043;-69
2023/01/21 12:56:21;;;;;;;0.55;0.55;;;;;;;3.28;70.87;99398.19;5115423;28;20047;-69
2023/01/21 12:58:55;;;;;;;1.15;1.08;;;;;;;3.24;71.21;99396.38;5115297;28;20134;-69
2023/01/21 13:01:49;;;;;;;0.45;0.45;;;;;;;3.20;70.83;99397.16;5115367;28;20051;-69
2023/01/21 13:04:31;;;;;;;1.00;1.00;;;;;;;3.22;71.08;99403.94;5115127;28;20345;-70
2023/01/21 13:07:05;;;;;;;0.93;0.93;;;;;;;3.26;71.55;99420.00;5115465;28;20043;-69
2023/01/21 13:09:42;;;;;;;2.03;1.90;;;;;;;3.20;71.56;99419.84;5115470;28;20451;-69
2023/01/21 13:12:18;;;;;;;0.50;0.50;;;;;;;3.19;71.16;99423.19;5115062;28;20047;-69
2023/01/21 13:14:55;;;;;;;3.83;2.38;;;;;;;3.20;71.51;99423.22;5115349;28;20070;-70
2023/01/21 13:17:31;;;;;;;2.03;1.80;;;;;;;3.13;71.37;99428.06;5115020;27;20040;-69
2023/01/21 13:20:00;;;;;;;0.88;0.88;;;;;;;3.11;71.05;99429.72;5114878;28;20054;-69
2023/01/21 13:22:40;;;;;;;0.60;0.60;;;;;;;3.13;71.50;99433.13;5114536;28;20056;-70
2023/01/21 13:25:23;;;;;;;0.95;0.95;;;;;;;3.11;71.74;99432.22;5114692;28;20039;-69
2023/01/21 13:27:57;;;;;;;1.27;1.20;;;;;;;3.13;71.66;99444.06;5114826;28;20054;-69
2023/01/21 13:30:36;;;;;;;0.57;0.57;;;;;;;3.16;71.58;99443.28;5114702;28;20067;-69
2023/01/21 13:33:23;;;;;;;0.63;0.63;;;;;;;3.17;71.28;99444.97;5114659;28;20035;-69
2023/01/21 13:36:04;;;;;;;1.23;1.13;;;;;;;3.24;71.88;99456.91;5115202;28;20071;-69
2023/01/21 13:38:40;;;;;;;0.50;0.50;;;;;;;3.21;71.86;99456.84;5114557;28;20051;-69
2023/01/21 13:41:23;;;;;;;0.50;0.50;;;;;;;3.21;72.02;99462.75;5115183;28;20481;-70
2023/01/21 13:44:11;;;;;;;0.45;0.45;;;;;;;3.19;71.34;99471.09;5113463;28;20405;-69
2023/01/21 13:46:53;;;;;;;1.13;1.02;;;;;;;3.15;71.81;99467.63;5113221;28;20134;-69
2023/01/21 13:49:49;;;;;;;0.77;0.77;;;;;;;3.16;71.69;99468.50;5114855;28;20093;-69
2023/01/21 13:52:24;;;;;;;1.08;1.05;;;;;;;3.15;71.98;99476.84;5112705;28;20059;-70
2023/01/21 13:55:19;;;;;;;0.85;0.85;;;;;;;3.13;72.51;99473.44;5113650;28;20066;-70
2023/01/21 13:58:00;;;;;;;0.60;0.60;;;;;;;3.08;72.22;99475.84;5114096;28;20078;-69
2023/01/21 14:00:37;;;;;;;0.52;0.52;;;;;;;3.07;71.90;99488.44;5114225;28;20524;-69
2023/01/21 14:03:24;;;;;;;0.38;0.38;;;;;;;3.03;72.15;99484.09;5114563;28;20040;-69
2023/01/21 14:05:59;;;;;;;0.80;0.80;;;;;;;3.03;72.52;99484.09;5114003;28;20043;-69
2023/01/21 14:08:35;;;;;;;0.50;0.50;;;;;;;3.07;72.35;99488.44;5114166;28;20052;-69
2023/01/21 14:11:10;;;;;;;0.30;0.30;;;;;;;3.06;72.56;99501.84;5114059;28;20082;-69
2023/01/21 14:14:07;;;;;;;1.05;1.05;;;;;;;3.00;72.32;99496.66;5114590;28;20385;-70
2023/01/21 14:16:57;;;;;;;1.00;0.95;;;;;;;2.97;72.58;99506.66;5114031;28;20055;-69
2023/01/21 14:19:56;;;;;;;3.67;1.70;;;;;;;2.95;72.92;99509.09;5114335;28;20126;-69
2023/01/21 14:22:39;;;;;;;0.70;0.70;;;;;;;2.95;72.04;99508.28;5113747;28;20042;-70
2023/01/21 14:25:30;;;;;;;1.38;0.82;;;;;;;2.97;72.87;99516.72;5114314;28;20028;-70
2023/01/21 14:28:09;;;;;;;0.63;0.63;;;;;;;2.91;72.57;99504.81;5114219;28;20048;-69
2023/01/21 14:30:43;;;;;;;2.50;2.30;;;;;;;2.96;72.90;99512.47;5113942;28;20048;-70
2023/01/21 14:33:17;;;;;;;0.88;0.88;;;;;;;2.94;72.49;99516.63;5113861;28;20044;-69
2023/01/21 14:35:51;;;;;;;2.17;1.60;;;;;;;2.88;72.43;99513.97;5113868;28;20054;-70
2023/01/21 14:38:33;;;;;;;0.75;0.75;;;;;;;2.92;73.23;99521.66;5114201;28;20048;-69
2023/01/21 14:41:09;;;;;;;0.77;0.77;;;;;;;2.90;72.82;99519.91;5113744;28;20075;-70
2023/01/21 14:43:50;;;;;;;0.50;0.50;;;;;;;2.87;72.40;99529.88;5113845;28;20075;-70
2023/01/21 14:46:25;;;;;;;0.50;0.50;;;;;;;2.86;72.78;99533.22;5113654;28;20036;-70
2023/01/21 14:49:00;;;;;;;0.70;0.70;;;;;;;2.86;73.11;99530.69;5113801;28;20054;-70
2023/01/21 14:51:30;;;;;;;1.15;1.08;;;;;;;2.84;72.41;99535.69;5113765;28;20050;-70
2023/01/21 14:54:02;;;;;;;1.60;1.15;;;;;;;2.85;72.59;99541.59;5113641;28;20056;-70
2023/01/21 14:56:34;;;;;;;3.00;1.98;;;;;;;2.81;73.30;99540.66;5113941;28;20071;-70
2023/01/21 14:59:07;;;;;;;1.50;1.00;;;;;;;2.80;73.07;99548.16;5114118;28;20055;-70
2023/01/21 15:01:41;;;;;;;0.57;0.57;;;;;;;2.76;73.33;99533.78;5113610;28;20055;-69
2023/01/21 15:04:24;;;;;;;29.33;2.97;;;;;;;2.78;73.18;99539.72;5113891;28;20126;-69
2023/01/21 15:06:56;;;;;;;1.48;1.38;;;;;;;2.76;73.41;99547.22;5113615;28;20044;-70
2023/01/21 15:09:29;;;;;;;1.00;1.00;;;;;;;2.76;73.39;99541.34;5114809;28;20075;-70
2023/01/21 15:12:02;;;;;;;1.38;1.27;;;;;;;2.72;73.33;99546.28;5117457;28;20123;-70
2023/01/21 15:14:35;;;;;;;0.40;0.40;;;;;;;2.71;72.77;99551.31;5117669;28;20047;-69
2023/01/21 15:17:05;;;;;;;0.40;0.40;;;;;;;2.70;72.88;99547.91;5117674;28;20136;-69
2023/01/21 15:19:34;;;;;;;0.50;0.50;;;;;;;2.69;73.65;99548.72;5117611;28;20059;-69
2023/01/21 15:22:21;;;;;;;0.90;0.90;;;;;;;2.67;73.22;99552.00;5117286;28;20552;-70
2023/01/21 15:25:02;;;;;;;0.63;0.55;;;;;;;2.69;73.71;99551.25;5117118;28;20044;-69
2023/01/21 15:27:33;;;;;;;0.68;0.68;;;;;;;2.67;73.36;99546.97;5117386;28;20047;-69